sensor_id;sensor_type;location;lat;lon;timestamp;P1;durP1;ratioP1;P2;durP2;ratioP2
46983;SDS011;34732;52.112;9.366;2023-02-03T09:14:32;5.82;;;0.90;;
46983;SDS011;34732;52.112;9.366;2023-02-03T09:17:54;7.50;;;1.00;;
46983;SDS011;34732;52.112;9.366;2023-02-03T09:21:19;7.68;;;0.80;;
46983;SDS011;34732;52.112;9.366;2023-02-03T09:24:44;5.47;;;1.02;;
46983;SDS011;34732;52.112;9.366;2023-02-03T09:28:13;8.60;;;0.85;;
46983;SDS011;34732;52.112;9.366;2023-02-03T09:31:39;16.90;;;2.10;;
46983;SDS011;34732;52.112;9.366;2023-02-03T09:35:06;9.02;;;1.50;;
46983;SDS011;34732;52.112;9.366;2023-02-03T09:38:32;7.00;;;1.38;;
46983;SDS011;34732;52.112;9.366;2023-02-03T09:42:05;7.97;;;1.58;;
46983;SDS011;34732;52.112;9.366;2023-02-03T09:45:28;5.47;;;1.20;;
46983;SDS011;34732;52.112;9.366;2023-02-03T09:48:58;6.22;;;1.08;;
46983;SDS011;34732;52.112;9.366;2023-02-03T09:52:33;4.82;;;1.15;;
46983;SDS011;34732;52.112;9.366;2023-02-03T09:55:59;2.30;;;0.70;;
46983;SDS011;34732;52.112;9.366;2023-02-03T09:59:23;2.42;;;0.85;;
46983;SDS011;34732;52.112;9.366;2023-02-03T10:09:59;4.25;;;0.70;;
46983;SDS011;34732;52.112;9.366;2023-02-03T10:13:39;4.30;;;0.80;;
46983;SDS011;34732;52.112;9.366;2023-02-03T10:20:46;4.72;;;0.82;;
46983;SDS011;34732;52.112;9.366;2023-02-03T10:24:12;2.15;;;0.77;;
46983;SDS011;34732;52.112;9.366;2023-02-03T10:27:35;5.10;;;0.80;;
46983;SDS011;34732;52.112;9.366;2023-02-03T10:31:01;2.28;;;0.57;;
46983;SDS011;34732;52.112;9.366;2023-02-03T10:34:28;2.10;;;0.60;;
46983;SDS011;34732;52.112;9.366;2023-02-03T10:37:52;2.28;;;0.70;;
46983;SDS011;34732;52.112;9.366;2023-02-03T10:41:22;3.63;;;0.70;;
46983;SDS011;34732;52.112;9.366;2023-02-03T10:48:19;1.70;;;0.60;;
46983;SDS011;34732;52.112;9.366;2023-02-03T10:51:49;3.33;;;0.80;;
46983;SDS011;34732;52.112;9.366;2023-02-03T10:58:52;2.05;;;0.57;;
46983;SDS011;34732;52.112;9.366;2023-02-03T11:05:42;1.80;;;0.43;;
46983;SDS011;34732;52.112;9.366;2023-02-03T11:09:05;1.77;;;1.00;;
46983;SDS011;34732;52.112;9.366;2023-02-03T11:12:44;1.52;;;0.52;;
46983;SDS011;34732;52.112;9.366;2023-02-03T11:19:41;4.28;;;0.85;;
46983;SDS011;34732;52.112;9.366;2023-02-03T11:23:06;7.38;;;0.98;;
46983;SDS011;34732;52.112;9.366;2023-02-03T11:26:43;2.75;;;0.60;;
46983;SDS011;34732;52.112;9.366;2023-02-03T11:33:45;3.60;;;0.70;;
46983;SDS011;34732;52.112;9.366;2023-02-03T11:40:47;5.40;;;1.08;;
46983;SDS011;34732;52.112;9.366;2023-02-03T11:44:23;3.85;;;1.17;;
46983;SDS011;34732;52.112;9.366;2023-02-03T11:47:50;2.85;;;0.57;;
46983;SDS011;34732;52.112;9.366;2023-02-03T11:55:53;2.67;;;0.50;;
46983;SDS011;34732;52.112;9.366;2023-02-03T12:10:05;3.45;;;0.70;;
46983;SDS011;34732;52.112;9.366;2023-02-03T12:21:44;2.40;;;1.00;;
46983;SDS011;34732;52.112;9.366;2023-02-03T12:36:17;6.10;;;1.00;;
46983;SDS011;34732;52.112;9.366;2023-02-03T12:40:03;5.57;;;0.73;;
46983;SDS011;34732;52.112;9.366;2023-02-03T12:47:03;4.55;;;1.45;;
46983;SDS011;34732;52.112;9.366;2023-02-03T12:50:38;5.78;;;1.00;;
46983;SDS011;34732;52.112;9.366;2023-02-03T12:58:19;12.75;;;5.15;;
46983;SDS011;34732;52.112;9.366;2023-02-03T13:13:01;12.25;;;3.63;;
46983;SDS011;34732;52.112;9.366;2023-02-03T13:20:05;9.57;;;2.95;;
46983;SDS011;34732;52.112;9.366;2023-02-03T13:23:42;10.32;;;3.88;;
46983;SDS011;34732;52.112;9.366;2023-02-03T13:27:16;10.18;;;3.42;;
46983;SDS011;34732;52.112;9.366;2023-02-03T13:42:31;9.65;;;3.38;;
46983;SDS011;34732;52.112;9.366;2023-02-03T13:45:59;9.65;;;3.22;;
46983;SDS011;34732;52.112;9.366;2023-02-03T13:49:22;7.60;;;2.95;;
46983;SDS011;34732;52.112;9.366;2023-02-03T13:56:28;10.95;;;2.88;;
46983;SDS011;34732;52.112;9.366;2023-02-03T13:59:54;8.32;;;3.00;;
46983;SDS011;34732;52.112;9.366;2023-02-03T14:13:46;7.50;;;2.88;;
46983;SDS011;34732;52.112;9.366;2023-02-03T14:21:10;8.95;;;2.65;;
46983;SDS011;34732;52.112;9.366;2023-02-03T14:24:37;6.95;;;2.85;;
46983;SDS011;34732;52.112;9.366;2023-02-03T14:28:03;6.43;;;2.60;;
46983;SDS011;34732;52.112;9.366;2023-02-03T14:31:26;6.30;;;2.40;;
46983;SDS011;34732;52.112;9.366;2023-02-03T14:34:55;5.60;;;2.22;;
46983;SDS011;34732;52.112;9.366;2023-02-03T14:38:18;7.15;;;2.60;;
46983;SDS011;34732;52.112;9.366;2023-02-03T14:41:45;6.75;;;2.33;;
46983;SDS011;34732;52.112;9.366;2023-02-03T14:56:25;4.25;;;1.63;;
46983;SDS011;34732;52.112;9.366;2023-02-03T15:03:41;8.35;;;2.47;;
46983;SDS011;34732;52.112;9.366;2023-02-03T15:07:37;9.57;;;2.95;;
46983;SDS011;34732;52.112;9.366;2023-02-03T15:11:22;5.47;;;2.50;;
46983;SDS011;34732;52.112;9.366;2023-02-03T15:14:46;6.07;;;2.28;;
46983;SDS011;34732;52.112;9.366;2023-02-03T15:18:19;7.25;;;2.22;;
46983;SDS011;34732;52.112;9.366;2023-02-03T15:21:47;7.55;;;1.85;;
46983;SDS011;34732;52.112;9.366;2023-02-03T15:25:15;8.10;;;2.00;;
46983;SDS011;34732;52.112;9.366;2023-02-03T15:28:37;5.70;;;2.05;;
46983;SDS011;34732;52.112;9.366;2023-02-03T15:32:37;6.93;;;2.72;;
46983;SDS011;34732;52.112;9.366;2023-02-03T15:46:24;4.82;;;1.90;;
46983;SDS011;34732;52.112;9.366;2023-02-03T15:49:56;5.85;;;2.38;;
46983;SDS011;34732;52.112;9.366;2023-02-03T15:53:26;6.40;;;2.35;;
46983;SDS011;34732;52.112;9.366;2023-02-03T16:00:29;7.22;;;1.83;;
46983;SDS011;34732;52.112;9.366;2023-02-03T16:04:00;3.90;;;1.85;;
46983;SDS011;34732;52.112;9.366;2023-02-03T16:07:25;5.97;;;1.95;;
46983;SDS011;34732;52.112;9.366;2023-02-03T16:10:50;6.45;;;1.77;;
46983;SDS011;34732;52.112;9.366;2023-02-03T16:14:21;6.38;;;1.80;;
46983;SDS011;34732;52.112;9.366;2023-02-03T16:18:01;6.90;;;2.28;;
46983;SDS011;34732;52.112;9.366;2023-02-03T16:24:53;5.50;;;1.90;;
46983;SDS011;34732;52.112;9.366;2023-02-03T16:28:16;4.18;;;1.80;;
46983;SDS011;34732;52.112;9.366;2023-02-03T16:31:56;4.68;;;1.95;;
46983;SDS011;34732;52.112;9.366;2023-02-03T16:35:41;4.53;;;1.50;;
46983;SDS011;34732;52.112;9.366;2023-02-03T16:39:26;7.90;;;2.20;;
46983;SDS011;34732;52.112;9.366;2023-02-03T16:43:10;6.07;;;1.88;;
46983;SDS011;34732;52.112;9.366;2023-02-03T16:46:53;6.10;;;2.17;;
46983;SDS011;34732;52.112;9.366;2023-02-03T16:50:33;5.90;;;2.13;;
46983;SDS011;34732;52.112;9.366;2023-02-03T16:54:15;6.53;;;1.67;;
46983;SDS011;34732;52.112;9.366;2023-02-03T16:57:39;5.00;;;1.65;;
46983;SDS011;34732;52.112;9.366;2023-02-03T17:01:03;6.35;;;2.10;;
46983;SDS011;34732;52.112;9.366;2023-02-03T17:04:25;6.15;;;1.90;;
46983;SDS011;34732;52.112;9.366;2023-02-03T17:07:48;5.70;;;2.38;;
46983;SDS011;34732;52.112;9.366;2023-02-03T17:11:18;5.32;;;1.83;;
46983;SDS011;34732;52.112;9.366;2023-02-03T17:14:40;8.27;;;1.80;;
46983;SDS011;34732;52.112;9.366;2023-02-03T17:18:08;9.57;;;2.15;;
46983;SDS011;34732;52.112;9.366;2023-02-03T17:21:30;9.40;;;2.13;;
46983;SDS011;34732;52.112;9.366;2023-02-03T17:24:56;8.95;;;1.95;;
46983;SDS011;34732;52.112;9.366;2023-02-03T17:28:22;7.07;;;2.03;;
46983;SDS011;34732;52.112;9.366;2023-02-03T17:31:48;8.25;;;1.83;;
46983;SDS011;34732;52.112;9.366;2023-02-03T17:35:09;7.47;;;1.88;;
46983;SDS011;34732;52.112;9.366;2023-02-03T17:38:37;4.97;;;1.30;;
46983;SDS011;34732;52.112;9.366;2023-02-03T17:42:04;8.23;;;1.77;;
46983;SDS011;34732;52.112;9.366;2023-02-03T17:45:28;4.93;;;1.80;;
46983;SDS011;34732;52.112;9.366;2023-02-03T17:48:56;3.83;;;1.70;;
46983;SDS011;34732;52.112;9.366;2023-02-03T17:52:20;7.03;;;1.80;;
46983;SDS011;34732;52.112;9.366;2023-02-03T17:55:43;4.07;;;1.45;;
46983;SDS011;34732;52.112;9.366;2023-02-03T17:59:05;4.30;;;1.40;;
46983;SDS011;34732;52.112;9.366;2023-02-03T18:02:30;3.17;;;1.52;;
46983;SDS011;34732;52.112;9.366;2023-02-03T18:05:51;6.45;;;1.40;;
46983;SDS011;34732;52.112;9.366;2023-02-03T18:09:15;4.95;;;1.23;;
46983;SDS011;34732;52.112;9.366;2023-02-03T18:12:41;3.97;;;1.30;;
46983;SDS011;34732;52.112;9.366;2023-02-03T18:16:05;6.70;;;1.80;;
46983;SDS011;34732;52.112;9.366;2023-02-03T18:19:27;5.18;;;1.35;;
46983;SDS011;34732;52.112;9.366;2023-02-03T18:22:53;4.80;;;1.70;;
46983;SDS011;34732;52.112;9.366;2023-02-03T18:26:17;4.75;;;1.52;;
46983;SDS011;34732;52.112;9.366;2023-02-03T18:29:46;3.47;;;1.17;;
46983;SDS011;34732;52.112;9.366;2023-02-03T18:33:10;4.68;;;1.83;;
46983;SDS011;34732;52.112;9.366;2023-02-03T18:39:54;6.70;;;1.45;;
46983;SDS011;34732;52.112;9.366;2023-02-03T18:43:21;4.93;;;1.58;;
46983;SDS011;34732;52.112;9.366;2023-02-03T18:46:45;5.80;;;1.52;;
46983;SDS011;34732;52.112;9.366;2023-02-03T18:50:11;7.05;;;1.50;;
46983;SDS011;34732;52.112;9.366;2023-02-03T18:53:36;7.70;;;1.70;;
46983;SDS011;34732;52.112;9.366;2023-02-03T18:57:00;4.80;;;1.52;;
46983;SDS011;34732;52.112;9.366;2023-02-03T19:00:30;5.05;;;1.80;;
46983;SDS011;34732;52.112;9.366;2023-02-03T19:03:52;6.57;;;1.70;;
46983;SDS011;34732;52.112;9.366;2023-02-03T19:07:17;3.70;;;1.48;;
46983;SDS011;34732;52.112;9.366;2023-02-03T19:10:38;6.30;;;1.77;;
46983;SDS011;34732;52.112;9.366;2023-02-03T19:14:01;4.65;;;1.67;;
46983;SDS011;34732;52.112;9.366;2023-02-03T19:17:23;5.57;;;1.38;;
46983;SDS011;34732;52.112;9.366;2023-02-03T19:20:46;3.85;;;1.48;;
46983;SDS011;34732;52.112;9.366;2023-02-03T19:24:15;5.28;;;1.50;;
46983;SDS011;34732;52.112;9.366;2023-02-03T19:27:42;5.13;;;1.45;;
46983;SDS011;34732;52.112;9.366;2023-02-03T19:31:10;4.93;;;1.60;;
46983;SDS011;34732;52.112;9.366;2023-02-03T19:34:39;3.75;;;1.35;;
46983;SDS011;34732;52.112;9.366;2023-02-03T19:38:00;4.63;;;1.40;;
46983;SDS011;34732;52.112;9.366;2023-02-03T19:41:26;4.15;;;1.55;;
46983;SDS011;34732;52.112;9.366;2023-02-03T19:45:04;3.97;;;1.38;;
46983;SDS011;34732;52.112;9.366;2023-02-03T19:48:30;4.80;;;1.40;;
46983;SDS011;34732;52.112;9.366;2023-02-03T19:51:54;4.43;;;1.38;;
46983;SDS011;34732;52.112;9.366;2023-02-03T19:55:17;3.45;;;1.17;;
46983;SDS011;34732;52.112;9.366;2023-02-03T19:58:40;3.25;;;1.30;;
46983;SDS011;34732;52.112;9.366;2023-02-03T20:02:08;3.47;;;1.40;;
46983;SDS011;34732;52.112;9.366;2023-02-03T20:05:29;5.13;;;1.45;;
46983;SDS011;34732;52.112;9.366;2023-02-03T20:08:59;4.82;;;1.30;;
46983;SDS011;34732;52.112;9.366;2023-02-03T20:12:25;4.47;;;1.40;;
46983;SDS011;34732;52.112;9.366;2023-02-03T20:15:49;7.57;;;1.50;;
46983;SDS011;34732;52.112;9.366;2023-02-03T20:19:13;2.75;;;1.00;;
46983;SDS011;34732;52.112;9.366;2023-02-03T20:22:37;3.85;;;1.83;;
46983;SDS011;34732;52.112;9.366;2023-02-03T20:25:58;18.80;;;1.65;;
46983;SDS011;34732;52.112;9.366;2023-02-03T20:29:21;6.70;;;1.52;;
46983;SDS011;34732;52.112;9.366;2023-02-03T20:32:45;7.40;;;1.30;;
46983;SDS011;34732;52.112;9.366;2023-02-03T20:36:06;14.20;;;3.63;;
46983;SDS011;34732;52.112;9.366;2023-02-03T20:39:30;13.93;;;4.45;;
46983;SDS011;34732;52.112;9.366;2023-02-03T20:42:51;16.40;;;4.00;;
46983;SDS011;34732;52.112;9.366;2023-02-03T20:46:14;9.45;;;3.38;;
46983;SDS011;34732;52.112;9.366;2023-02-03T20:49:42;11.93;;;3.40;;
46983;SDS011;34732;52.112;9.366;2023-02-03T20:53:13;12.18;;;3.40;;
